createdAt,value
2019-01-26T14:15:22.073Z,3.50
2019-01-26T14:17:50.707Z,3.50
2019-01-26T14:20:21.841Z,3.70
2019-01-26T14:22:50.539Z,3.70
2019-01-26T14:25:19.363Z,3.80
2019-01-26T14:27:48.057Z,3.90
2019-01-26T14:30:28.484Z,3.90
2019-01-26T14:32:57.389Z,4.00
2019-01-26T14:35:26.119Z,4.10
2019-01-26T14:37:54.909Z,4.10
2019-01-26T14:40:23.631Z,4.20
2019-01-26T14:42:55.347Z,4.10
2019-01-26T14:45:23.992Z,4.30
2019-01-26T14:47:52.552Z,4.30
2019-01-26T14:50:21.368Z,4.30
2019-01-26T14:52:49.961Z,4.40
2019-01-26T14:55:46.934Z,4.50
2019-01-26T14:58:15.568Z,4.50
2019-01-26T15:00:44.248Z,4.60
2019-01-26T15:03:12.989Z,4.50
2019-01-26T15:05:41.728Z,4.50
2019-01-26T15:08:10.342Z,4.50
2019-01-26T15:10:39.001Z,4.50
2019-01-26T15:13:07.640Z,4.50
2019-01-26T15:15:36.296Z,4.60
2019-01-26T15:18:05.113Z,4.60
2019-01-26T15:20:37.028Z,4.60
2019-01-26T15:23:06.830Z,4.60
2019-01-26T15:25:36.058Z,4.60
2019-01-26T15:28:05.356Z,4.50
2019-01-26T15:30:36.482Z,4.50
2019-01-26T15:33:05.898Z,4.50
2019-01-26T15:35:34.723Z,4.40
2019-01-26T15:38:03.818Z,4.40
2019-01-26T15:40:32.603Z,4.30
2019-01-26T15:43:01.292Z,4.30
2019-01-26T15:45:35.456Z,4.20
2019-01-26T15:48:05.165Z,4.20
2019-01-26T15:50:33.813Z,4.10
2019-01-26T15:53:02.381Z,4.10
2019-01-26T15:55:31.121Z,4.10
2019-01-26T15:57:59.684Z,4.10
2019-01-26T16:00:31.408Z,4.10
2019-01-26T16:03:00.208Z,4.00
2019-01-26T16:05:29.133Z,4.00
2019-01-26T16:07:57.988Z,4.00
2019-01-26T16:10:26.826Z,4.00
2019-01-26T16:12:55.577Z,3.90
2019-01-26T16:15:32.265Z,3.90
2019-01-26T16:18:00.928Z,3.80
2019-01-26T16:20:29.659Z,3.80
2019-01-26T16:22:58.396Z,3.80
2019-01-26T16:25:27.013Z,3.80
2019-01-26T16:27:55.597Z,3.80
2019-01-26T16:30:31.723Z,3.80
2019-01-26T16:33:00.392Z,3.90
2019-01-26T16:35:29.081Z,3.80
2019-01-26T16:37:57.816Z,3.80
2019-01-26T16:40:28.708Z,3.80
2019-01-26T16:42:57.444Z,3.80
2019-01-26T16:45:28.657Z,3.80
2019-01-26T16:47:57.818Z,3.80
2019-01-26T16:50:28.234Z,3.80
2019-01-26T16:52:57.254Z,3.80
2019-01-26T16:55:26.026Z,3.70
2019-01-26T16:57:54.730Z,3.80
2019-01-26T17:00:29.193Z,3.80
2019-01-26T17:02:57.805Z,3.70
2019-01-26T17:05:26.501Z,3.70
2019-01-26T17:07:55.225Z,3.70
2019-01-26T17:10:23.998Z,3.80
2019-01-26T17:12:52.660Z,3.90
2019-01-26T17:15:21.401Z,3.80
2019-01-26T17:17:50.023Z,3.80
2019-01-26T17:20:21.622Z,3.80
2019-01-26T17:22:50.297Z,3.90
2019-01-26T17:25:18.921Z,3.80
2019-01-26T17:27:47.680Z,3.80
2019-01-26T17:30:22.573Z,3.80
2019-01-26T17:32:51.217Z,3.80
2019-01-26T17:35:19.925Z,3.80
2019-01-26T17:37:48.508Z,3.70
2019-01-26T17:40:22.489Z,3.60
2019-01-26T17:42:51.143Z,3.60
2019-01-26T17:45:20.348Z,3.70
2019-01-26T17:47:49.173Z,3.60
2019-01-26T17:50:22.740Z,3.60
2019-01-26T17:52:51.459Z,3.60
2019-01-26T17:55:20.248Z,3.60
2019-01-26T17:57:48.965Z,3.60
2019-01-26T18:00:32.920Z,3.60
2019-01-26T18:03:01.577Z,3.50
2019-01-26T18:05:30.280Z,3.50
2019-01-26T18:07:58.890Z,3.50
2019-01-26T18:10:27.582Z,3.50
2019-01-26T18:12:57.305Z,3.60
2019-01-26T18:15:25.998Z,3.50
2019-01-26T18:17:54.725Z,3.50
2019-01-26T18:20:28.301Z,3.50
2019-01-26T18:22:56.950Z,3.60
2019-01-26T18:25:30.118Z,3.60
2019-01-26T18:27:58.705Z,3.60
2019-01-26T18:30:29.218Z,3.60
2019-01-26T18:32:57.943Z,3.60
2019-01-26T18:35:26.573Z,3.60
2019-01-26T18:37:55.312Z,3.50
2019-01-26T18:40:25.930Z,3.60
2019-01-26T18:42:54.670Z,3.60
2019-01-26T18:45:25.365Z,3.60
2019-01-26T18:47:54.525Z,3.40
2019-01-26T18:50:35.278Z,3.40
2019-01-26T18:53:04.342Z,3.50
2019-01-26T18:55:32.969Z,3.40
2019-01-26T18:58:01.728Z,3.50
2019-01-26T19:00:35.865Z,3.50
2019-01-26T19:03:07.524Z,3.50
2019-01-26T19:05:38.733Z,3.50
2019-01-26T19:08:08.068Z,3.50
2019-01-26T19:10:36.646Z,3.50
2019-01-26T19:13:05.402Z,3.50
2019-01-26T19:15:34.021Z,3.50
2019-01-26T19:18:02.608Z,3.50
2019-01-26T19:20:31.260Z,3.60
2019-01-26T19:23:00.084Z,3.50
2019-01-26T19:25:28.810Z,3.50
2019-01-26T19:27:57.413Z,3.60
2019-01-26T19:30:26.131Z,3.50
2019-01-26T19:32:54.725Z,3.50
2019-01-26T19:35:23.420Z,3.50
2019-01-26T19:37:51.983Z,3.50
2019-01-26T19:40:24.641Z,3.40
2019-01-26T19:42:53.286Z,3.40
2019-01-26T19:45:23.872Z,3.40
2019-01-26T19:47:52.536Z,3.30
2019-01-26T19:50:22.968Z,3.30
2019-01-26T19:52:51.764Z,3.30
2019-01-26T19:55:22.491Z,3.30
2019-01-26T19:57:51.195Z,3.30
2019-01-26T20:00:19.918Z,3.40
2019-01-26T20:02:48.615Z,3.40
2019-01-26T20:05:22.630Z,3.40
2019-01-26T20:07:51.332Z,3.30
2019-01-26T20:10:20.362Z,3.30
2019-01-26T20:12:49.074Z,3.40
2019-01-26T20:15:25.106Z,3.40
2019-01-26T20:17:53.727Z,3.40
2019-01-26T20:20:25.157Z,3.40
2019-01-26T20:22:53.869Z,3.40
2019-01-26T20:25:22.581Z,3.40
2019-01-26T20:27:51.288Z,3.40
2019-01-26T20:30:26.222Z,3.40
2019-01-26T20:32:55.026Z,3.40
2019-01-26T20:35:23.722Z,3.40
2019-01-26T20:37:52.424Z,3.40
2019-01-26T20:40:21.729Z,3.30
2019-01-26T20:42:50.409Z,3.40
2019-01-26T20:45:21.543Z,3.40
2019-01-26T20:47:50.239Z,3.40
2019-01-26T20:50:19.060Z,3.50
2019-01-26T20:52:47.766Z,3.50
2019-01-26T20:55:16.503Z,3.50
2019-01-26T20:57:45.049Z,3.50
2019-01-26T21:00:19.620Z,3.40
2019-01-26T21:02:48.286Z,3.40
2019-01-26T21:05:16.818Z,3.40
2019-01-26T21:07:45.515Z,3.30
2019-01-26T21:10:17.011Z,3.40
2019-01-26T21:15:40.196Z,3.40
2019-01-26T21:18:08.878Z,3.30
2019-01-26T21:20:37.685Z,3.40
2019-01-26T21:23:09.462Z,3.30
2019-01-26T21:25:38.121Z,3.30
2019-01-26T21:28:06.818Z,3.30
2019-01-26T21:30:35.704Z,3.30
2019-01-26T21:33:04.265Z,3.30
2019-01-26T21:35:32.909Z,3.30
2019-01-26T21:38:01.708Z,3.40
2019-01-26T21:40:31.232Z,3.30
2019-01-26T21:43:00.132Z,3.30
2019-01-26T21:45:28.873Z,3.30
2019-01-26T21:47:57.561Z,3.40
2019-01-26T21:50:28.285Z,3.30
2019-01-26T21:52:57.607Z,3.30
2019-01-26T21:55:26.425Z,3.40
2019-01-26T21:57:55.220Z,3.30
2019-01-26T22:00:26.533Z,3.50
2019-01-26T22:02:55.258Z,3.50
2019-01-26T22:05:24.006Z,3.40
2019-01-26T22:07:52.685Z,3.40
2019-01-26T22:10:26.814Z,3.30
2019-01-26T22:12:55.620Z,3.30
2019-01-26T22:15:25.198Z,3.20
2019-01-26T22:17:54.201Z,3.20
2019-01-26T22:20:25.090Z,3.30
2019-01-26T22:22:53.850Z,3.20
2019-01-26T22:25:22.985Z,3.20
2019-01-26T22:27:52.128Z,3.10
2019-01-26T22:30:26.662Z,3.10
2019-01-26T22:32:55.563Z,3.10
2019-01-26T22:35:24.593Z,3.00
2019-01-26T22:37:53.234Z,3.00
2019-01-26T22:40:34.277Z,3.00
2019-01-26T22:43:03.229Z,3.00
2019-01-26T22:45:32.045Z,3.00
2019-01-26T22:48:01.013Z,3.00
2019-01-26T22:50:31.461Z,3.00
2019-01-26T22:53:00.245Z,3.00
2019-01-26T22:55:30.549Z,3.00
2019-01-26T22:57:59.501Z,3.00
2019-01-26T23:00:52.275Z,3.00
2019-01-26T23:03:42.098Z,3.00
2019-01-26T23:06:30.407Z,3.00
2019-01-26T23:09:02.147Z,3.00
2019-01-26T23:11:42.912Z,3.00
2019-01-26T23:14:20.520Z,2.90
2019-01-26T23:17:24.576Z,2.80
2019-01-26T23:19:56.566Z,2.80
2019-01-26T23:22:28.237Z,2.70
2019-01-26T23:25:11.621Z,2.70
2019-01-26T23:27:46.222Z,2.70
2019-01-26T23:30:26.907Z,2.70
2019-01-26T23:32:55.485Z,2.70
2019-01-26T23:35:24.133Z,2.70
2019-01-26T23:37:52.716Z,2.70
2019-01-26T23:40:21.421Z,2.70
2019-01-26T23:42:57.621Z,2.70
2019-01-26T23:45:26.602Z,2.70
2019-01-26T23:47:55.467Z,2.70
2019-01-26T23:50:24.222Z,2.70
2019-01-26T23:52:52.948Z,2.80
2019-01-26T23:55:22.054Z,2.70
2019-01-26T23:57:50.794Z,2.60
